Time;durP1;ratioP1;P1;durP2;ratioP2;P2;SDS_P1;SDS_P2;PMS_P1;PMS_P2;Temp;Humidity;BMP_temperature;BMP_pressure;BME280_temperature;BME280_humidity;BME280_pressure;Samples;Min_cycle;Max_cycle;Signal;HPM_P1;HPM_P2
2021/03/17 00:01:15;;;;;;;15.07;10.02;;;6.10;1.00;;;;;;5092358;28;20669;-74
2021/03/17 00:03:42;;;;;;;17.38;10.55;;;6.10;1.00;;;;;;5092185;28;20704;-75
2021/03/17 00:06:09;;;;;;;20.88;9.95;;;6.00;1.00;;;;;;5093593;28;20288;-76
2021/03/17 00:08:36;;;;;;;13.88;9.00;;;6.00;1.00;;;;;;5093437;28;20321;-75
2021/03/17 00:11:04;;;;;;;15.02;9.10;;;6.00;1.00;;;;;;5090345;28;20293;-75
2021/03/17 00:13:30;;;;;;;15.10;9.15;;;6.00;1.00;;;;;;5089177;28;20217;-75
2021/03/17 00:15:59;;;;;;;15.23;9.23;;;6.00;1.00;;;;;;5063892;28;770071;-74
2021/03/17 00:18:26;;;;;;;15.15;9.80;;;6.00;1.00;;;;;;5090807;28;20198;-74
2021/03/17 00:20:53;;;;;;;17.10;8.48;;;6.00;1.00;;;;;;5092354;28;20212;-75
2021/03/17 00:23:20;;;;;;;15.80;9.80;;;6.00;1.00;;;;;;5093067;28;20676;-75
2021/03/17 00:25:47;;;;;;;16.02;9.75;;;6.00;1.00;;;;;;5093936;28;20208;-75
2021/03/17 00:28:14;;;;;;;19.42;9.52;;;6.00;1.00;;;;;;5094301;28;20831;-75
2021/03/17 00:30:42;;;;;;;14.73;8.80;;;6.00;1.00;;;;;;5092854;28;20207;-75
2021/03/17 00:33:10;;;;;;;12.93;9.45;;;6.00;1.00;;;;;;5089846;28;20282;-75
2021/03/17 00:35:37;;;;;;;14.75;9.80;;;6.00;1.00;;;;;;5072067;28;20676;-75
2021/03/17 00:38:04;;;;;;;14.50;8.25;;;5.90;1.00;;;;;;5089303;28;20296;-75
2021/03/17 00:40:31;;;;;;;15.60;10.40;;;5.90;1.00;;;;;;5090186;28;20204;-75
2021/03/17 00:42:58;;;;;;;18.55;10.13;;;5.90;1.00;;;;;;5091958;28;20550;-74
2021/03/17 00:45:26;;;;;;;15.98;10.27;;;5.90;1.00;;;;;;5092452;28;20235;-74
2021/03/17 00:47:53;;;;;;;12.98;9.48;;;5.90;1.00;;;;;;5092419;28;20761;-75
2021/03/17 00:50:21;;;;;;;16.13;10.02;;;5.90;1.00;;;;;;5093550;28;20684;-75
2021/03/17 00:52:47;;;;;;;12.55;9.45;;;5.90;1.00;;;;;;5092190;28;20596;-74
2021/03/17 00:55:14;;;;;;;15.52;9.20;;;5.90;1.00;;;;;;5090881;28;20277;-76
2021/03/17 00:57:41;;;;;;;12.95;8.85;;;5.90;1.00;;;;;;5089602;28;20196;-75
2021/03/17 01:00:11;;;;;;;16.30;9.63;;;5.90;1.00;;;;;;5089837;28;20688;-75
2021/03/17 01:02:39;;;;;;;12.52;9.45;;;5.90;1.00;;;;;;5091301;28;20221;-75
2021/03/17 01:05:28;;;;;;;14.10;9.13;;;5.90;1.00;;;;;;5091313;28;20278;-75
2021/03/17 01:07:54;;;;;;;15.10;9.63;;;5.90;1.00;;;;;;5092328;28;20284;-75
2021/03/17 01:10:25;;;;;;;15.13;9.30;;;5.90;1.00;;;;;;5093388;28;20723;-75
2021/03/17 01:12:51;;;;;;;12.02;9.40;;;5.90;1.00;;;;;;5092969;28;20681;-75
2021/03/17 01:15:19;;;;;;;20.65;10.23;;;5.90;1.00;;;;;;5093041;28;20605;-75
2021/03/17 01:17:47;;;;;;;14.00;9.88;;;5.90;1.00;;;;;;5088727;28;20290;-75
2021/03/17 01:20:15;;;;;;;17.25;10.80;;;5.90;1.00;;;;;;5088023;28;20215;-74
2021/03/17 01:22:41;;;;;;;14.95;9.80;;;5.90;1.00;;;;;;5089613;28;20304;-75
2021/03/17 01:25:11;;;;;;;17.23;9.13;;;5.90;1.00;;;;;;5090669;28;20551;-75
2021/03/17 01:27:38;;;;;;;17.08;9.68;;;5.90;1.00;;;;;;5089772;28;20208;-75
2021/03/17 01:30:07;;;;;;;17.00;10.60;;;5.90;1.00;;;;;;5092071;28;20197;-75
2021/03/17 01:32:34;;;;;;;14.23;9.80;;;5.90;1.00;;;;;;5092836;28;20204;-75
2021/03/17 01:35:01;;;;;;;13.57;9.25;;;5.90;1.00;;;;;;5091416;28;20649;-75
2021/03/17 01:37:28;;;;;;;15.98;9.80;;;5.90;1.00;;;;;;5092960;28;20647;-75
2021/03/17 01:39:54;;;;;;;16.73;10.90;;;5.90;1.00;;;;;;5089479;28;20203;-74
2021/03/17 01:42:21;;;;;;;15.00;9.60;;;5.90;1.00;;;;;;5088703;28;20215;-75
2021/03/17 01:44:47;;;;;;;14.63;10.18;;;5.90;1.00;;;;;;5090187;28;20270;-75
2021/03/17 01:47:14;;;;;;;13.88;10.02;;;5.90;1.00;;;;;;5090886;28;20664;-75
2021/03/17 01:49:40;;;;;;;14.00;9.43;;;5.90;1.00;;;;;;5090877;28;20219;-75
2021/03/17 01:52:08;;;;;;;16.92;10.13;;;5.90;1.00;;;;;;5091731;28;20681;-75
2021/03/17 01:54:35;;;;;;;13.25;9.57;;;5.90;1.00;;;;;;5092516;28;20227;-75
2021/03/17 01:57:01;;;;;;;14.60;9.75;;;5.90;1.00;;;;;;5092462;28;20532;-75
2021/03/17 01:59:28;;;;;;;13.57;9.57;;;5.90;1.00;;;;;;5092433;28;20207;-75
2021/03/17 02:01:56;;;;;;;15.00;9.98;;;5.90;1.00;;;;;;5089407;28;20205;-75
2021/03/17 02:04:23;;;;;;;15.20;9.18;;;5.90;1.00;;;;;;5088564;28;20212;-75
2021/03/17 02:06:51;;;;;;;17.13;9.43;;;5.90;1.00;;;;;;5090178;28;20292;-75
2021/03/17 02:09:19;;;;;;;16.60;9.70;;;5.90;1.00;;;;;;5090248;28;20239;-75
2021/03/17 02:11:58;;;;;;;17.48;10.48;;;5.90;1.00;;;;;;5089300;28;20201;-75
2021/03/17 02:14:35;;;;;;;13.13;8.88;;;5.90;1.00;;;;;;5091414;28;20674;-74
2021/03/17 02:17:08;;;;;;;13.80;9.85;;;5.90;1.00;;;;;;5092156;28;20232;-75
2021/03/17 02:20:08;;;;;;;14.10;9.57;;;5.90;1.00;;;;;;5092437;28;20205;-75
2021/03/17 02:22:47;;;;;;;13.10;10.13;;;5.90;1.00;;;;;;5091573;28;20537;-75
2021/03/17 02:25:48;;;;;;;12.18;9.02;;;5.80;1.00;;;;;;5087899;28;20230;-75
2021/03/17 02:28:24;;;;;;;13.98;8.60;;;5.80;1.00;;;;;;5089648;28;20205;-74
2021/03/17 02:31:10;;;;;;;17.48;10.55;;;5.80;1.00;;;;;;5088654;28;20197;-75
2021/03/17 02:33:48;;;;;;;14.20;10.30;;;5.80;1.00;;;;;;5088939;28;20228;-75
2021/03/17 02:36:19;;;;;;;15.85;10.68;;;5.80;1.00;;;;;;5089970;28;20204;-75
2021/03/17 02:38:50;;;;;;;14.07;9.77;;;5.80;1.00;;;;;;5092275;28;20193;-75
2021/03/17 02:41:24;;;;;;;15.07;9.73;;;5.80;1.00;;;;;;5090779;28;20231;-75
2021/03/17 02:43:54;;;;;;;15.32;9.93;;;5.80;1.00;;;;;;5092239;28;20208;-75
2021/03/17 02:46:24;;;;;;;16.10;10.90;;;5.80;1.00;;;;;;5088841;28;20234;-75
2021/03/17 02:48:59;;;;;;;19.63;12.60;;;5.80;1.00;;;;;;5086852;28;20667;-76
2021/03/17 02:51:32;;;;;;;15.00;10.88;;;5.80;1.00;;;;;;5089986;28;20207;-75
2021/03/17 02:54:02;;;;;;;15.65;11.68;;;5.80;1.00;;;;;;5088301;28;20228;-75
2021/03/17 02:56:31;;;;;;;19.15;10.73;;;5.80;1.00;;;;;;5090313;28;20243;-75
2021/03/17 02:58:59;;;;;;;20.10;11.65;;;5.80;1.00;;;;;;5091396;28;20247;-75
2021/03/17 03:01:26;;;;;;;16.15;11.07;;;5.80;1.00;;;;;;5093267;28;20253;-75
2021/03/17 03:03:53;;;;;;;15.10;10.10;;;5.80;1.00;;;;;;5095588;28;20221;-75
2021/03/17 03:06:21;;;;;;;15.50;11.25;;;5.80;1.00;;;;;;5095544;28;20197;-75
2021/03/17 03:08:48;;;;;;;15.02;11.10;;;5.80;1.00;;;;;;5085907;28;20228;-74
2021/03/17 03:11:17;;;;;;;14.32;9.30;;;5.80;1.00;;;;;;5087540;28;20254;-75
2021/03/17 03:13:44;;;;;;;17.42;10.52;;;5.80;1.00;;;;;;5093201;28;20224;-75
2021/03/17 03:16:12;;;;;;;15.50;11.32;;;5.70;1.00;;;;;;5093232;28;20277;-75
2021/03/17 03:18:39;;;;;;;17.48;12.60;;;5.70;1.00;;;;;;5093988;28;20211;-75
2021/03/17 03:21:08;;;;;;;25.17;13.90;;;5.80;1.00;;;;;;5094565;28;20264;-75
2021/03/17 03:23:36;;;;;;;18.48;12.85;;;5.70;1.00;;;;;;5095217;28;20213;-76
2021/03/17 03:26:04;;;;;;;20.85;14.50;;;5.70;1.00;;;;;;5095272;28;20646;-76
2021/03/17 03:28:34;;;;;;;25.45;14.52;;;5.70;1.00;;;;;;5095107;28;20204;-75
2021/03/17 03:31:01;;;;;;;20.88;13.93;;;5.70;1.00;;;;;;5091427;28;20296;-74
2021/03/17 03:33:28;;;;;;;19.70;13.13;;;5.70;1.00;;;;;;5090611;28;20583;-75
2021/03/17 03:35:54;;;;;;;19.55;13.18;;;5.70;1.00;;;;;;5091743;28;20215;-74
2021/03/17 03:38:23;;;;;;;19.65;13.60;;;5.70;1.00;;;;;;5092867;28;20568;-74
2021/03/17 03:40:50;;;;;;;23.42;14.90;;;5.70;1.00;;;;;;5091721;28;20197;-75
2021/03/17 03:43:17;;;;;;;20.35;14.73;;;5.70;1.00;;;;;;5093893;28;20720;-74
2021/03/17 03:45:43;;;;;;;26.48;16.42;;;5.70;1.00;;;;;;5093668;28;20618;-75
2021/03/17 03:48:11;;;;;;;20.27;14.23;;;5.70;1.00;;;;;;5094692;28;20657;-74
2021/03/17 03:50:40;;;;;;;23.77;15.63;;;5.70;1.00;;;;;;5095009;28;20203;-74
2021/03/17 03:53:14;;;;;;;22.65;14.63;;;5.70;1.00;;;;;;5091312;28;20202;-76
2021/03/17 03:55:50;;;;;;;21.02;14.25;;;5.70;1.00;;;;;;5090489;28;20242;-76
2021/03/17 03:58:26;;;;;;;22.02;13.25;;;5.70;1.00;;;;;;5092396;28;20205;-76
2021/03/17 04:00:57;;;;;;;22.67;13.32;;;5.60;1.00;;;;;;5092724;28;20210;-76
2021/03/17 04:03:25;;;;;;;22.33;13.05;;;5.60;1.00;;;;;;5092638;28;20317;-76
2021/03/17 04:05:53;;;;;;;18.83;11.75;;;5.70;1.00;;;;;;5094078;28;20364;-75
2021/03/17 04:08:22;;;;;;;16.83;12.43;;;5.60;1.00;;;;;;5093322;28;20196;-75
2021/03/17 04:10:55;;;;;;;17.30;12.23;;;5.60;1.00;;;;;;5093373;28;20197;-75
2021/03/17 04:13:23;;;;;;;14.70;10.13;;;5.60;1.00;;;;;;5091973;28;20598;-75
2021/03/17 04:15:50;;;;;;;11.70;8.40;;;5.50;1.00;;;;;;5088623;28;20229;-75
2021/03/17 04:18:20;;;;;;;11.35;8.43;;;5.60;1.00;;;;;;5090526;28;20679;-75
2021/03/17 04:20:49;;;;;;;11.77;8.30;;;5.60;1.00;;;;;;5092088;28;20231;-75
2021/03/17 04:23:17;;;;;;;11.07;8.48;;;5.50;1.00;;;;;;5091778;28;20405;-75
2021/03/17 04:25:47;;;;;;;10.88;7.35;;;5.50;1.00;;;;;;5092296;28;20199;-75
2021/03/17 04:28:18;;;;;;;10.25;7.25;;;5.50;1.00;;;;;;5093601;28;20202;-75
2021/03/17 04:30:45;;;;;;;10.65;7.70;;;5.50;1.00;;;;;;5094073;28;20669;-75
2021/03/17 04:33:14;;;;;;;10.05;7.38;;;5.50;1.00;;;;;;5092781;28;20572;-75
2021/03/17 04:35:42;;;;;;;9.35;7.35;;;5.50;1.00;;;;;;5093730;28;20204;-75
2021/03/17 04:38:10;;;;;;;8.25;7.20;;;5.50;1.00;;;;;;5089267;28;20257;-76
2021/03/17 04:40:38;;;;;;;8.00;6.50;;;5.50;1.00;;;;;;5089357;28;20197;-75
2021/03/17 04:43:06;;;;;;;8.55;6.10;;;5.40;1.00;;;;;;5091619;28;20217;-76
2021/03/17 04:45:34;;;;;;;8.38;6.20;;;5.40;1.00;;;;;;5090253;28;20663;-76
2021/03/17 04:48:02;;;;;;;6.53;5.43;;;5.40;1.00;;;;;;5091813;28;20197;-76
2021/03/17 04:50:29;;;;;;;9.88;6.70;;;5.40;1.00;;;;;;5093194;28;20204;-75
2021/03/17 04:52:56;;;;;;;5.55;4.63;;;5.30;1.00;;;;;;5093694;28;20200;-75
2021/03/17 04:55:22;;;;;;;7.45;5.95;;;5.30;1.00;;;;;;5093613;28;20232;-75
2021/03/17 04:57:51;;;;;;;7.40;6.25;;;5.30;1.00;;;;;;5093739;28;20652;-75
2021/03/17 05:00:21;;;;;;;7.25;5.43;;;5.30;1.00;;;;;;5088954;28;20240;-75
2021/03/17 05:02:53;;;;;;;9.20;6.43;;;5.30;1.00;;;;;;5088671;28;20707;-74
2021/03/17 05:05:21;;;;;;;6.63;5.70;;;5.30;1.00;;;;;;5091398;28;20200;-76
2021/03/17 05:07:50;;;;;;;6.80;5.65;;;5.30;1.00;;;;;;5091380;28;20279;-75
2021/03/17 05:10:17;;;;;;;9.93;7.53;;;5.30;1.00;;;;;;5090561;28;20204;-76
2021/03/17 05:12:45;;;;;;;7.78;6.60;;;5.30;1.00;;;;;;5092707;28;20209;-76
2021/03/17 05:15:12;;;;;;;7.25;6.55;;;5.30;1.00;;;;;;5092825;28;20685;-75
2021/03/17 05:17:40;;;;;;;8.45;5.45;;;5.30;1.00;;;;;;5093098;28;20638;-76
2021/03/17 05:20:12;;;;;;;7.25;5.72;;;5.30;1.00;;;;;;5092905;28;20681;-75
2021/03/17 05:22:42;;;;;;;6.47;5.47;;;5.20;1.00;;;;;;5087595;28;20562;-75
2021/03/17 05:25:11;;;;;;;6.05;5.30;;;5.20;1.00;;;;;;5089128;28;20227;-75
2021/03/17 05:27:42;;;;;;;5.68;4.97;;;5.20;1.00;;;;;;5089653;28;20543;-75
2021/03/17 05:30:11;;;;;;;6.47;5.05;;;5.20;1.00;;;;;;5089610;28;20199;-74
2021/03/17 05:32:41;;;;;;;4.75;4.28;;;5.20;1.00;;;;;;5091134;28;20288;-75
2021/03/17 05:35:10;;;;;;;4.72;4.30;;;5.10;1.00;;;;;;5092749;28;20317;-75
2021/03/17 05:37:38;;;;;;;5.38;4.80;;;5.20;1.00;;;;;;5091781;28;20208;-75
2021/03/17 05:40:08;;;;;;;5.40;4.90;;;5.20;1.00;;;;;;5092727;28;20719;-75
2021/03/17 05:42:35;;;;;;;6.97;5.55;;;5.10;1.00;;;;;;5090515;28;20707;-75
2021/03/17 05:45:02;;;;;;;5.95;5.32;;;5.10;1.00;;;;;;5088199;28;20219;-75
2021/03/17 05:47:30;;;;;;;6.90;5.85;;;5.10;1.00;;;;;;5089493;28;20282;-75
2021/03/17 05:49:57;;;;;;;7.28;5.93;;;5.10;1.00;;;;;;5090535;28;20197;-75
2021/03/17 05:52:25;;;;;;;6.05;5.15;;;5.10;1.00;;;;;;5090508;28;20247;-75
2021/03/17 05:54:52;;;;;;;7.82;5.55;;;5.10;1.00;;;;;;5090446;28;20233;-75
2021/03/17 05:57:20;;;;;;;7.28;5.60;;;5.10;1.00;;;;;;5092791;28;20206;-75
2021/03/17 05:59:46;;;;;;;6.68;6.07;;;5.10;1.00;;;;;;5092552;28;20220;-75
2021/03/17 06:02:14;;;;;;;6.53;5.90;;;5.10;1.00;;;;;;5092466;28;20207;-75
2021/03/17 06:04:41;;;;;;;5.95;5.20;;;5.10;1.00;;;;;;5091515;28;20210;-76
2021/03/17 06:07:14;;;;;;;6.75;5.55;;;5.00;1.00;;;;;;5086615;28;20639;-75
2021/03/17 06:09:46;;;;;;;8.98;6.18;;;5.00;1.00;;;;;;5089018;28;20617;-75
2021/03/17 06:12:14;;;;;;;7.18;6.45;;;5.00;1.00;;;;;;5090219;28;20674;-75
2021/03/17 06:14:44;;;;;;;6.97;6.10;;;4.90;1.00;;;;;;5088691;28;21223;-75
2021/03/17 06:17:17;;;;;;;6.97;5.90;;;5.00;1.00;;;;;;5090011;28;20656;-76
2021/03/17 06:19:45;;;;;;;8.05;6.43;;;5.00;1.00;;;;;;5092356;28;20193;-75
2021/03/17 06:22:12;;;;;;;7.53;6.20;;;5.00;1.00;;;;;;5090978;28;20680;-76
2021/03/17 06:24:40;;;;;;;7.40;6.13;;;5.00;1.00;;;;;;5092348;28;20218;-75
2021/03/17 06:27:12;;;;;;;7.57;6.32;;;5.00;1.00;;;;;;5090133;28;20206;-76
2021/03/17 06:29:39;;;;;;;9.25;6.47;;;5.00;1.00;;;;;;5086879;28;20298;-76
2021/03/17 06:32:07;;;;;;;6.50;5.80;;;5.00;1.00;;;;;;5088860;28;20250;-76
2021/03/17 06:34:33;;;;;;;7.80;7.00;;;5.00;1.00;;;;;;5089504;28;20222;-76
2021/03/17 06:37:00;;;;;;;8.05;6.47;;;5.00;1.00;;;;;;5092461;28;20195;-76
2021/03/17 06:39:35;;;;;;;8.00;7.18;;;5.00;1.00;;;;;;5094332;28;20200;-76
2021/03/17 06:42:01;;;;;;;9.18;6.97;;;5.10;1.00;;;;;;5092549;28;20244;-75
2021/03/17 06:44:30;;;;;;;10.65;8.32;;;5.10;1.00;;;;;;5091487;28;20262;-75
2021/03/17 06:47:13;;;;;;;9.55;7.65;;;5.10;1.00;;;;;;5093954;28;20555;-75
2021/03/17 06:49:41;;;;;;;11.50;8.13;;;5.00;1.00;;;;;;5093716;28;20675;-75
2021/03/17 06:52:26;;;;;;;11.93;9.38;;;5.00;1.00;;;;;;5092757;28;20722;-75
2021/03/17 06:55:16;;;;;;;10.93;8.82;;;5.10;1.00;;;;;;5095183;28;20230;-75
2021/03/17 06:57:45;;;;;;;11.73;8.40;;;5.10;1.00;;;;;;5090911;28;20332;-75
2021/03/17 07:00:24;;;;;;;11.30;8.55;;;5.10;1.00;;;;;;5095470;28;20199;-76
2021/03/17 07:02:51;;;;;;;9.98;8.38;;;5.10;1.00;;;;;;5095635;28;20200;-76
2021/03/17 07:05:18;;;;;;;10.85;8.50;;;5.10;1.00;;;;;;5089570;28;20189;-75
2021/03/17 07:07:49;;;;;;;11.75;9.73;;;5.10;1.00;;;;;;5090623;28;20735;-75
2021/03/17 07:10:28;;;;;;;11.20;9.15;;;5.10;1.00;;;;;;5093518;28;20234;-75
2021/03/17 07:12:55;;;;;;;11.30;9.20;;;5.10;1.00;;;;;;5091279;28;20255;-76
2021/03/17 07:15:23;;;;;;;9.75;7.70;;;5.10;1.00;;;;;;5092199;28;20326;-74
2021/03/17 07:17:50;;;;;;;9.77;7.47;;;5.10;1.00;;;;;;5095355;28;20553;-75
2021/03/17 07:20:35;;;;;;;13.20;9.52;;;5.10;1.00;;;;;;5094924;28;20291;-74
2021/03/17 07:23:20;;;;;;;10.48;7.80;;;5.20;1.00;;;;;;5091021;28;20205;-75
2021/03/17 07:26:11;;;;;;;8.25;7.32;;;5.20;1.00;;;;;;5074925;28;20198;-75
2021/03/17 07:28:54;;;;;;;8.35;6.50;;;5.20;1.00;;;;;;5089384;28;20568;-78
2021/03/17 07:31:23;;;;;;;9.23;7.18;;;5.20;1.00;;;;;;5086014;28;20627;-75
2021/03/17 07:33:50;;;;;;;9.27;7.13;;;5.30;1.00;;;;;;5071452;28;20218;-75
2021/03/17 07:36:32;;;;;;;9.63;7.75;;;5.20;1.00;;;;;;5092730;28;20227;-75
2021/03/17 07:39:03;;;;;;;10.18;7.95;;;5.20;1.00;;;;;;5094067;28;20204;-76
2021/03/17 07:41:31;;;;;;;9.30;7.22;;;5.30;1.00;;;;;;5089644;28;20220;-75
2021/03/17 07:43:58;;;;;;;10.50;8.18;;;5.40;1.00;;;;;;5090018;28;20308;-76
2021/03/17 07:46:27;;;;;;;9.98;8.02;;;5.30;1.00;;;;;;5094958;28;20200;-75
2021/03/17 07:48:54;;;;;;;9.23;7.15;;;5.40;1.00;;;;;;5092550;28;20196;-74
2021/03/17 07:51:21;;;;;;;8.15;6.82;;;5.40;1.00;;;;;;5090186;28;20207;-75
2021/03/17 07:53:51;;;;;;;9.50;7.90;;;5.40;1.00;;;;;;5091433;28;20221;-75
2021/03/17 07:56:21;;;;;;;8.40;7.00;;;5.40;1.00;;;;;;5090947;28;20610;-74
2021/03/17 07:58:49;;;;;;;10.10;7.43;;;5.40;1.00;;;;;;5092205;28;20668;-75
2021/03/17 08:01:17;;;;;;;8.63;6.57;;;5.40;1.00;;;;;;5093310;28;20225;-76
2021/03/17 08:03:46;;;;;;;9.45;7.32;;;5.40;1.00;;;;;;5093353;28;20230;-75
2021/03/17 08:06:15;;;;;;;11.25;6.60;;;5.40;1.00;;;;;;5093157;28;20246;-74
2021/03/17 08:08:43;;;;;;;9.35;7.13;;;5.40;1.00;;;;;;5092244;28;20209;-75
2021/03/17 08:11:12;;;;;;;9.27;7.70;;;5.40;1.00;;;;;;5089603;28;20198;-75
2021/03/17 08:13:41;;;;;;;9.60;8.50;;;5.40;1.00;;;;;;5091131;28;20255;-76
2021/03/17 08:16:09;;;;;;;10.18;8.45;;;5.40;1.00;;;;;;5089889;28;20229;-75
2021/03/17 08:18:41;;;;;;;11.20;9.20;;;5.40;1.00;;;;;;5091370;28;20249;-75
2021/03/17 08:21:08;;;;;;;10.57;8.82;;;5.40;1.00;;;;;;5091093;28;20230;-74
2021/03/17 08:23:39;;;;;;;10.88;8.75;;;5.50;1.00;;;;;;5127417;27;20235;-74
2021/03/17 08:26:05;;;;;;;9.77;8.07;;;5.50;1.00;;;;;;5127013;27;20287;-75
2021/03/17 08:28:44;;;;;;;13.13;9.23;;;5.50;1.00;;;;;;5094200;28;20362;-75
2021/03/17 08:31:11;;;;;;;11.15;9.25;;;5.60;1.00;;;;;;5091940;28;20212;-76
2021/03/17 08:33:39;;;;;;;12.00;9.40;;;5.70;1.00;;;;;;5089652;28;20209;-75
2021/03/17 08:36:09;;;;;;;11.57;9.70;;;5.70;1.00;;;;;;5091082;28;20216;-74
2021/03/17 08:38:46;;;;;;;12.88;10.25;;;5.80;1.00;;;;;;5091728;28;20284;-75
2021/03/17 08:41:13;;;;;;;13.20;10.30;;;5.90;1.00;;;;;;5091734;28;20720;-75
2021/03/17 08:43:43;;;;;;;13.23;9.95;;;5.90;1.00;;;;;;5090875;28;20217;-75
2021/03/17 08:46:11;;;;;;;13.13;9.80;;;6.00;1.00;;;;;;5092842;28;20233;-75
2021/03/17 08:48:54;;;;;;;13.80;10.65;;;6.00;1.00;;;;;;5092733;28;20287;-75
2021/03/17 08:51:50;;;;;;;16.52;10.85;;;6.00;1.00;;;;;;5092865;28;20715;-74
2021/03/17 08:54:47;;;;;;;16.50;11.65;;;6.00;1.00;;;;;;5089452;28;20209;-75
2021/03/17 08:57:16;;;;;;;13.95;9.75;;;6.10;1.00;;;;;;5087151;28;20262;-75
2021/03/17 08:59:44;;;;;;;13.65;10.63;;;6.20;1.00;;;;;;5088874;28;20280;-75
2021/03/17 09:02:21;;;;;;;12.85;10.50;;;6.20;1.00;;;;;;5090494;28;20216;-75
2021/03/17 09:04:49;;;;;;;11.75;9.60;;;6.30;1.00;;;;;;5091670;28;20562;-75
2021/03/17 09:07:17;;;;;;;13.45;11.50;;;6.40;1.00;;;;;;5091311;28;20565;-75
2021/03/17 09:09:48;;;;;;;10.70;9.27;;;6.30;1.00;;;;;;5092110;28;20204;-75
2021/03/17 09:12:17;;;;;;;8.95;8.02;;;6.40;1.00;;;;;;5093501;28;20672;-75
2021/03/17 09:14:43;;;;;;;7.57;5.57;;;6.40;1.00;;;;;;5093307;28;20228;-75
2021/03/17 09:17:13;;;;;;;4.97;4.32;;;6.30;1.00;;;;;;5090107;28;20255;-76
2021/03/17 09:19:56;;;;;;;4.63;3.92;;;6.30;1.00;;;;;;5071558;28;20189;-75
2021/03/17 09:22:39;;;;;;;4.90;3.85;;;6.30;1.00;;;;;;5091871;27;20204;-76
2021/03/17 09:25:22;;;;;;;4.85;4.22;;;6.30;1.00;;;;;;5118899;27;20713;-75
2021/03/17 09:27:53;;;;;;;5.15;4.45;;;6.30;1.00;;;;;;5119342;27;20650;-75
2021/03/17 09:30:22;;;;;;;5.70;5.13;;;6.30;1.00;;;;;;5092575;28;20229;-75
2021/03/17 09:32:49;;;;;;;6.25;5.10;;;6.30;1.00;;;;;;5093008;28;20203;-75
2021/03/17 09:35:18;;;;;;;5.43;4.93;;;6.30;1.00;;;;;;5092808;28;20653;-75
2021/03/17 09:37:45;;;;;;;6.30;5.07;;;6.30;1.00;;;;;;5092626;28;20189;-75
2021/03/17 09:40:16;;;;;;;5.55;5.15;;;6.30;1.00;;;;;;5085860;28;20223;-75
2021/03/17 09:42:43;;;;;;;6.22;5.10;;;6.30;1.00;;;;;;5089158;28;20601;-75
2021/03/17 09:45:11;;;;;;;7.13;4.88;;;6.40;1.00;;;;;;5089589;28;20583;-75
2021/03/17 09:47:38;;;;;;;4.35;3.95;;;6.40;1.00;;;;;;5090775;28;20197;-75
2021/03/17 09:50:15;;;;;;;5.72;4.32;;;6.50;1.00;;;;;;5090563;28;20219;-75
2021/03/17 09:52:44;;;;;;;10.73;4.20;;;6.60;1.00;;;;;;5092218;28;20201;-76
2021/03/17 09:55:26;;;;;;;5.68;4.50;;;6.60;1.00;;;;;;5091553;28;20261;-75
2021/03/17 09:58:00;;;;;;;5.07;4.32;;;6.60;1.00;;;;;;5090904;28;20284;-74
2021/03/17 10:00:28;;;;;;;4.70;4.18;;;6.60;99.90;;;;;;5091095;28;20196;-75
2021/03/17 10:02:57;;;;;;;6.65;4.28;;;6.60;1.00;;;;;;5086714;28;20285;-75
2021/03/17 10:05:24;;;;;;;4.90;4.10;;;6.70;1.00;;;;;;5087552;28;20200;-75
2021/03/17 10:07:51;;;;;;;4.63;3.17;;;6.80;1.00;;;;;;5090712;28;20201;-75
2021/03/17 10:10:19;;;;;;;6.15;3.72;;;6.90;1.00;;;;;;5085163;28;20650;-75
2021/03/17 10:12:46;;;;;;;6.85;3.00;;;6.90;1.00;;;;;;5091135;28;20193;-76
2021/03/17 10:15:14;;;;;;;6.80;3.47;;;7.00;99.90;;;;;;5095669;28;20704;-75
2021/03/17 10:17:43;;;;;;;3.20;2.75;;;7.00;99.90;;;;;;5095059;28;20235;-75
2021/03/17 10:20:12;;;;;;;7.30;3.10;;;7.00;99.90;;;;;;5096086;28;20484;-75
2021/03/17 10:22:40;;;;;;;3.28;2.80;;;7.00;99.90;;;;;;5096763;28;20195;-75
2021/03/17 10:25:10;;;;;;;3.38;2.60;;;7.00;99.90;;;;;;5090819;28;20348;-76
2021/03/17 10:27:39;;;;;;;2.75;2.35;;;7.00;99.90;;;;;;5092032;28;20213;-75
2021/03/17 10:30:09;;;;;;;3.83;2.70;;;7.00;99.90;;;;;;5094194;28;20206;-76
2021/03/17 10:32:37;;;;;;;3.00;2.53;;;7.00;99.90;;;;;;5094306;28;20242;-75
2021/03/17 10:35:09;;;;;;;4.20;3.13;;;7.00;99.90;;;;;;5093548;28;20232;-75
2021/03/17 10:37:36;;;;;;;5.13;3.08;;;7.00;99.90;;;;;;5095214;28;20231;-75
2021/03/17 10:40:09;;;;;;;5.72;3.38;;;7.00;99.90;;;;;;5096190;28;20216;-75
2021/03/17 10:42:43;;;;;;;4.75;3.00;;;7.00;99.90;;;;;;5095701;28;20196;-75
2021/03/17 10:45:11;;;;;;;3.13;2.70;;;7.10;99.90;;;;;;5096294;28;20310;-74
2021/03/17 10:47:40;;;;;;;8.60;3.95;;;7.10;99.90;;;;;;5092616;28;20202;-75
2021/03/17 10:50:10;;;;;;;4.35;3.25;;;7.20;48.90;;;;;;5072452;28;20632;-75
2021/03/17 10:52:38;;;;;;;4.40;3.15;;;7.10;1.00;;;;;;5093595;28;20653;-74
2021/03/17 10:55:10;;;;;;;5.13;3.80;;;7.10;50.50;;;;;;5091403;28;20214;-74
2021/03/17 10:57:36;;;;;;;5.32;3.78;;;7.10;1.00;;;;;;5093121;28;20294;-76
2021/03/17 11:00:12;;;;;;;10.32;3.50;;;7.00;1.00;;;;;;5095116;28;20236;-74
2021/03/17 11:02:40;;;;;;;10.45;3.70;;;7.00;99.90;;;;;;5095359;28;20284;-75
2021/03/17 11:05:11;;;;;;;6.05;3.28;;;7.00;1.00;;;;;;5095778;28;20214;-75
2021/03/17 11:08:01;;;;;;;5.60;3.72;;;7.00;1.00;;;;;;5094389;28;20316;-75
2021/03/17 11:10:35;;;;;;;6.50;3.30;;;7.00;1.00;;;;;;5089965;28;20302;-75
2021/03/17 11:13:02;;;;;;;4.65;2.95;;;7.00;1.00;;;;;;5090759;28;20234;-75
2021/03/17 11:15:30;;;;;;;4.35;2.83;;;7.00;99.90;;;;;;5091417;28;20223;-74
2021/03/17 11:17:58;;;;;;;6.38;3.90;;;7.10;1.00;;;;;;5072754;28;20642;-75
2021/03/17 11:20:26;;;;;;;5.57;3.35;;;7.10;1.00;;;;;;5088604;28;20286;-75
2021/03/17 11:22:53;;;;;;;3.40;2.00;;;7.10;1.00;;;;;;5115422;27;20209;-75
2021/03/17 11:25:24;;;;;;;2.00;1.80;;;7.00;1.00;;;;;;5107081;28;20239;-74
2021/03/17 11:27:52;;;;;;;2.70;1.75;;;7.00;60.50;;;;;;5107203;28;20187;-76
2021/03/17 11:30:20;;;;;;;2.92;1.60;;;6.90;1.00;;;;;;5090526;28;20206;-75
2021/03/17 11:32:47;;;;;;;2.08;1.48;;;6.80;1.00;;;;;;5117954;27;20631;-74
2021/03/17 11:35:14;;;;;;;3.70;1.75;;;6.80;1.00;;;;;;5089748;28;20591;-75
2021/03/17 11:37:42;;;;;;;4.90;1.58;;;6.70;1.00;;;;;;5091182;28;20290;-76
2021/03/17 11:40:09;;;;;;;2.08;1.35;;;6.70;99.90;;;;;;5092942;28;20194;-74
2021/03/17 11:42:36;;;;;;;3.45;1.60;;;6.70;99.90;;;;;;5093435;28;20207;-75
2021/03/17 11:45:03;;;;;;;2.03;1.50;;;6.60;1.00;;;;;;5093981;28;21263;-76
2021/03/17 11:47:30;;;;;;;3.72;1.60;;;6.60;1.00;;;;;;5093639;28;20284;-76
2021/03/17 11:49:56;;;;;;;2.80;1.50;;;6.50;99.90;;;;;;5094483;28;20216;-76
2021/03/17 11:52:23;;;;;;;4.32;1.60;;;6.50;99.90;;;;;;5094824;28;20281;-73
2021/03/17 11:54:51;;;;;;;2.97;1.35;;;6.50;99.90;;;;;;5091244;28;20213;-75
2021/03/17 11:57:17;;;;;;;4.55;1.30;;;6.60;1.00;;;;;;5090077;28;20527;-74
2021/03/17 11:59:44;;;;;;;1.70;1.23;;;6.60;99.90;;;;;;5092989;28;20303;-74
2021/03/17 12:02:10;;;;;;;3.38;1.40;;;6.60;99.90;;;;;;5092541;28;20294;-75
2021/03/17 12:04:37;;;;;;;1.80;1.35;;;6.60;1.00;;;;;;5092817;28;20231;-75
2021/03/17 12:07:05;;;;;;;3.78;1.50;;;6.60;64.70;;;;;;5093001;28;20199;-75
2021/03/17 12:09:31;;;;;;;7.55;1.60;;;6.70;99.90;;;;;;5094422;28;20566;-75
2021/03/17 12:11:59;;;;;;;3.38;1.60;;;6.70;99.90;;;;;;5094412;28;20231;-75
2021/03/17 12:14:26;;;;;;;6.00;1.90;;;6.80;99.90;;;;;;5094211;28;20227;-74
2021/03/17 12:16:52;;;;;;;7.30;1.80;;;6.80;94.30;;;;;;5093141;28;20254;-75
2021/03/17 12:19:19;;;;;;;6.43;1.83;;;6.80;1.00;;;;;;5089970;28;20254;-75
2021/03/17 12:21:45;;;;;;;3.75;1.48;;;6.90;13.30;;;;;;5091238;28;20535;-75
2021/03/17 12:24:11;;;;;;;2.00;1.35;;;6.90;99.90;;;;;;5091947;28;20218;-75
2021/03/17 12:26:38;;;;;;;3.80;1.30;;;7.00;99.90;;;;;;5091919;28;20291;-75
2021/03/17 12:29:05;;;;;;;5.10;1.70;;;7.00;99.90;;;;;;5092409;28;20437;-75
2021/03/17 12:31:32;;;;;;;3.60;1.77;;;7.00;1.00;;;;;;5093014;28;20208;-75
2021/03/17 12:33:59;;;;;;;3.63;1.43;;;7.10;1.00;;;;;;5857514;22;20244;-74
2021/03/17 12:36:25;;;;;;;2.30;1.25;;;7.20;1.00;;;;;;5025078;28;20857;-74
2021/03/17 12:38:52;;;;;;;4.65;1.77;;;7.30;99.90;;;;;;5037593;28;20197;-74
2021/03/17 12:41:18;;;;;;;4.00;1.80;;;7.30;1.00;;;;;;5045696;28;20683;-75
2021/03/17 12:43:45;;;;;;;4.30;1.65;;;7.40;1.00;;;;;;5052625;28;20204;-74
2021/03/17 12:46:12;;;;;;;2.20;1.83;;;7.50;1.00;;;;;;5052362;28;20203;-75
2021/03/17 12:48:39;;;;;;;2.95;1.85;;;7.50;1.00;;;;;;5052587;28;20236;-74
2021/03/17 12:51:05;;;;;;;4.63;2.10;;;7.50;1.00;;;;;;5037043;28;20687;-74
2021/03/17 12:53:32;;;;;;;2.88;2.00;;;7.50;1.00;;;;;;5033999;28;20206;-75
2021/03/17 12:55:58;;;;;;;3.63;2.80;;;7.50;1.00;;;;;;5038224;28;20578;-75
2021/03/17 12:58:25;;;;;;;4.00;3.08;;;7.60;1.00;;;;;;5039386;28;20805;-74
2021/03/17 13:00:52;;;;;;;4.95;2.80;;;7.60;1.00;;;;;;5032218;28;20188;-75
2021/03/17 13:03:19;;;;;;;4.38;2.60;;;7.60;1.00;;;;;;5031842;28;20204;-74
2021/03/17 13:05:46;;;;;;;5.47;2.58;;;7.60;1.00;;;;;;5020704;28;20224;-74
2021/03/17 13:08:12;;;;;;;4.85;2.60;;;7.60;1.00;;;;;;5031342;28;20209;-74
2021/03/17 13:10:39;;;;;;;3.95;2.90;;;7.50;1.00;;;;;;5034112;28;20544;-73
2021/03/17 13:13:05;;;;;;;2.67;2.20;;;7.50;1.00;;;;;;5052754;28;20560;-73